首页
METAR-TAF:

METAR-TAF

机场 :

洛斯莫奇斯, 墨西哥

纬度: 25-41N, 经度: 109-05W, 海拔: 4米

当前天气观测

该预报发布于1小时和21分钟前的15:45 UTC
风速8节,风向南转西南
温度 31°C
湿度 46%
气压 1012 hPa
能見度: 16.1公里
多云层高于10000英尺
多云层高于22000英尺

METAR: MMLM 241545Z 20008KT 10SM BKN100 BKN220 31/18 A2988 RMK 8/028 HZY

时间: 11:06 (17:06 UTC)

预报

该预报发布于12小时和14分钟前的04:52 UTC
预报有效从24日的 06点(UTC)到 25日的 06点(UTC)
风速8节,风向南转西南
能見度: 10公里
散云层高于3000英尺
散云层高于10000英尺
短暂存在
从 24日的 06点(UTC)到 24日的 10点(UTC)
附近有, 雨
从 24日的 1500点(UTC)
风速5节,风向西南
能見度: 10公里
散云层高于10000英尺
成为
从 24日的 20点(UTC)到 24日的 21点(UTC)
风速15节,风向西
从 25日的 0300点(UTC)
风速3节,风向南转西南
能見度: 10公里
散云层高于10000英尺

TAF: MMLM 240452Z 2406/2506 20008KT P6SM SCT030 SCT100 TEMPO 2406/2410 VC RA FM241500 22005KT P6SM SCT100 BECMG 2420/2421 26015KT FM250300 20003KT P6SM SCT100

超过4000个机场的气象观测和天气预报(METAR&TAF报告)。

可查询的气象台以黄色和红色小点在地图上表示。

将鼠标移到小点上方,可查看气象台名称。

然后点击查看天气观测和预报。

如需切换地图:点击带黑十字的绿色按钮放大地图;点击带横线的绿色按钮缩小地图;或者点击绿色箭头查看邻近地区的地图。


METAR-TAF: